createdAt,value
2023-12-10T00:00:19.869Z,-1.04
2023-12-10T00:01:22.288Z,-1.07
2023-12-10T00:02:24.758Z,-1.04
2023-12-10T00:03:27.806Z,-1.08
2023-12-10T00:04:30.449Z,-1.05
2023-12-10T00:05:33.364Z,-1.04
2023-12-10T00:06:36.293Z,-1.06
2023-12-10T00:07:39.157Z,-1.08
2023-12-10T00:08:41.454Z,-1.13
2023-12-10T00:09:44.143Z,-1.13
2023-12-10T00:10:46.805Z,-1.11
2023-12-10T00:11:49.117Z,-1.12
2023-12-10T00:12:52.577Z,-1.10
2023-12-10T00:13:55.033Z,-1.12
2023-12-10T00:14:57.347Z,-1.12
2023-12-10T00:16:00.224Z,-1.14
2023-12-10T00:17:02.522Z,-1.14
2023-12-10T00:18:06.142Z,-1.12
2023-12-10T00:19:08.884Z,-1.12
2023-12-10T00:20:12.019Z,-1.12
2023-12-10T00:21:14.808Z,-1.11
2023-12-10T00:22:17.162Z,-1.12
2023-12-10T00:23:19.494Z,-1.13
2023-12-10T00:24:22.338Z,-1.13
2023-12-10T00:25:24.742Z,-1.14
2023-12-10T00:26:27.042Z,-1.06
2023-12-10T00:27:29.382Z,-1.07
2023-12-10T00:28:31.722Z,-1.10
2023-12-10T00:29:34.320Z,-1.10
2023-12-10T00:30:38.516Z,-1.09
2023-12-10T00:31:45.447Z,-1.09
2023-12-10T00:32:47.881Z,-1.09
2023-12-10T00:33:51.127Z,-1.07
2023-12-10T00:34:53.966Z,-1.07
2023-12-10T00:35:56.862Z,-1.06
2023-12-10T00:36:59.736Z,-1.05
2023-12-10T00:38:02.212Z,-1.05
2023-12-10T00:39:05.154Z,-1.04
2023-12-10T00:40:09.004Z,-1.04
2023-12-10T00:41:12.358Z,-1.04
2023-12-10T00:42:15.381Z,-1.04
2023-12-10T00:43:17.658Z,-1.04
2023-12-10T00:44:20.054Z,-1.04
2023-12-10T00:45:22.519Z,-1.05
2023-12-10T00:46:24.981Z,-1.06
2023-12-10T00:47:27.411Z,-1.02
2023-12-10T00:48:30.922Z,-1.04
2023-12-10T00:50:35.782Z,-0.97
2023-12-10T00:51:38.731Z,-1.10
2023-12-10T00:52:41.206Z,-1.13
2023-12-10T00:53:43.612Z,-1.14
2023-12-10T00:54:46.039Z,-1.11
2023-12-10T00:55:48.390Z,-1.15
2023-12-10T00:56:51.264Z,-1.14
2023-12-10T00:57:53.636Z,-1.12
2023-12-10T00:58:56.416Z,-1.14
2023-12-10T00:59:58.773Z,-1.12
2023-12-10T01:01:01.328Z,-1.11
2023-12-10T01:02:04.718Z,-1.10
2023-12-10T01:03:07.621Z,-1.10
2023-12-10T01:04:10.067Z,-1.11
2023-12-10T01:05:12.738Z,-1.11
2023-12-10T01:06:15.885Z,-1.12
2023-12-10T01:07:18.169Z,-1.11
2023-12-10T01:08:20.626Z,-1.10
2023-12-10T01:09:23.391Z,-1.10
2023-12-10T01:10:26.046Z,-1.08
2023-12-10T01:11:28.362Z,-1.08
2023-12-10T01:12:31.006Z,-1.10
2023-12-10T01:13:33.567Z,-1.10
2023-12-10T01:14:36.912Z,-1.09
2023-12-10T01:15:39.370Z,-1.13
2023-12-10T01:16:41.916Z,-1.11
2023-12-10T01:17:44.172Z,-1.12
2023-12-10T01:18:46.644Z,-1.12
2023-12-10T01:19:49.680Z,-1.08
2023-12-10T01:20:52.159Z,-1.09
2023-12-10T01:21:55.586Z,-1.12
2023-12-10T01:22:59.024Z,-1.09
2023-12-10T01:24:01.422Z,-1.08
2023-12-10T01:25:04.073Z,-1.09
2023-12-10T01:26:09.177Z,-1.12
2023-12-10T01:27:11.966Z,-1.09
2023-12-10T01:28:14.695Z,-1.11
2023-12-10T01:29:16.945Z,-1.09
2023-12-10T01:32:42.919Z,-1.03
2023-12-10T01:33:45.678Z,-1.20
2023-12-10T01:34:48.336Z,-1.17
2023-12-10T01:35:50.891Z,-1.12
2023-12-10T01:36:53.242Z,-1.14
2023-12-10T01:37:55.513Z,-1.12
2023-12-10T01:38:58.226Z,-1.10
2023-12-10T01:40:00.831Z,-1.11
2023-12-10T01:41:03.262Z,-1.13
2023-12-10T01:42:05.728Z,-1.12
2023-12-10T01:43:08.852Z,-1.10
2023-12-10T01:44:11.266Z,-1.09
2023-12-10T01:45:14.189Z,-1.09
2023-12-10T01:46:18.230Z,-1.07
2023-12-10T01:47:20.852Z,-1.08
2023-12-10T01:48:23.915Z,-1.08
2023-12-10T01:49:26.587Z,-1.11
2023-12-10T01:50:29.740Z,-1.09
2023-12-10T01:51:32.231Z,-1.08
2023-12-10T01:52:35.759Z,-1.10
2023-12-10T01:53:39.533Z,-1.06
2023-12-10T01:54:42.068Z,-1.09
2023-12-10T01:55:45.350Z,-1.09
2023-12-10T01:57:03.548Z,-1.10
2023-12-10T01:57:57.648Z,-1.08
2023-12-10T01:59:00.092Z,-1.06
2023-12-10T02:00:03.229Z,-1.07
2023-12-10T02:01:09.014Z,-1.08
2023-12-10T02:02:11.892Z,-1.08
2023-12-10T02:03:14.267Z,-1.12
2023-12-10T02:04:16.844Z,-1.13
2023-12-10T02:05:19.719Z,-1.12
2023-12-10T02:06:22.360Z,-1.13
2023-12-10T02:07:24.779Z,-1.16
2023-12-10T02:08:27.660Z,-1.16
2023-12-10T02:09:30.192Z,-1.16
2023-12-10T02:10:32.696Z,-1.13
2023-12-10T02:11:35.010Z,-1.15
2023-12-10T02:12:40.292Z,-1.12
2023-12-10T02:13:45.083Z,-1.13
2023-12-10T02:14:47.522Z,-1.13
2023-12-10T02:15:50.107Z,-1.13
2023-12-10T02:16:53.073Z,-1.14
2023-12-10T02:17:56.098Z,-1.16
2023-12-10T02:18:59.294Z,-1.15
2023-12-10T02:20:02.314Z,-1.15
2023-12-10T02:21:05.219Z,-1.15
2023-12-10T02:22:10.851Z,-1.15
2023-12-10T02:23:38.342Z,-1.14
2023-12-10T02:24:52.014Z,-1.12
2023-12-10T02:25:54.999Z,-1.11
2023-12-10T02:26:57.812Z,-1.10
2023-12-10T02:28:01.554Z,-1.11
2023-12-10T02:29:04.792Z,-1.07
2023-12-10T02:30:08.228Z,-1.11
2023-12-10T02:31:10.823Z,-1.11
2023-12-10T02:32:13.209Z,-1.12
2023-12-10T02:33:15.926Z,-1.13
2023-12-10T02:34:18.996Z,-1.12
2023-12-10T02:35:21.574Z,-1.14
2023-12-10T02:36:24.732Z,-1.13
2023-12-10T02:37:27.112Z,-1.15
2023-12-10T02:38:30.659Z,-1.15
2023-12-10T02:39:33.153Z,-1.14
2023-12-10T02:40:36.104Z,-1.17
2023-12-10T02:41:38.469Z,-1.16
2023-12-10T02:42:41.287Z,-1.13
2023-12-10T02:43:43.541Z,-1.19
2023-12-10T02:44:46.115Z,-1.20
2023-12-10T02:45:48.401Z,-1.16
2023-12-10T02:46:51.022Z,-1.17
2023-12-10T02:47:54.485Z,-1.16
2023-12-10T02:48:57.582Z,-1.16
2023-12-10T02:50:00.104Z,-1.16
2023-12-10T02:51:03.131Z,-1.15
2023-12-10T02:52:06.137Z,-1.15
2023-12-10T02:53:08.604Z,-1.15
2023-12-10T02:54:11.036Z,-1.11
2023-12-10T02:55:13.483Z,-1.11
2023-12-10T02:56:16.693Z,-1.12
2023-12-10T02:57:19.133Z,-1.13
2023-12-10T02:58:21.334Z,-1.14
2023-12-10T02:59:23.733Z,-1.14
2023-12-10T03:00:27.180Z,-1.15
2023-12-10T03:01:29.619Z,-1.13
2023-12-10T03:02:32.122Z,-1.15
2023-12-10T03:03:34.670Z,-1.15
2023-12-10T03:04:38.177Z,-1.15
2023-12-10T03:05:40.786Z,-1.18
2023-12-10T03:06:44.783Z,-1.19
2023-12-10T03:07:47.755Z,-1.18
2023-12-10T03:08:50.051Z,-1.16
2023-12-10T03:09:52.574Z,-1.15
2023-12-10T03:10:55.442Z,-1.17
2023-12-10T03:11:57.849Z,-1.17
2023-12-10T03:13:00.339Z,-1.14
2023-12-10T03:14:03.028Z,-1.17
2023-12-10T03:15:05.843Z,-1.17
2023-12-10T03:16:10.233Z,-1.16
2023-12-10T03:17:12.650Z,-1.18
2023-12-10T03:18:15.021Z,-1.19
2023-12-10T03:19:17.477Z,-1.16
2023-12-10T03:20:20.962Z,-1.19
2023-12-10T03:21:23.958Z,-1.19
2023-12-10T03:22:26.399Z,-1.19
2023-12-10T03:23:29.484Z,-1.19
2023-12-10T03:24:31.801Z,-1.19
2023-12-10T03:25:34.194Z,-1.20
2023-12-10T03:26:36.605Z,-1.23
2023-12-10T03:27:38.873Z,-1.18
2023-12-10T03:28:41.375Z,-1.17
2023-12-10T03:29:44.870Z,-1.14
2023-12-10T03:30:47.795Z,-1.13
2023-12-10T03:31:50.412Z,-1.15
2023-12-10T03:32:52.897Z,-1.17
2023-12-10T03:33:55.721Z,-1.20
2023-12-10T03:34:58.084Z,-1.20
2023-12-10T03:36:00.529Z,-1.22
2023-12-10T03:37:03.744Z,-1.21
2023-12-10T03:38:06.189Z,-1.23
2023-12-10T03:39:08.641Z,-1.23
2023-12-10T03:40:13.180Z,-1.19
2023-12-10T03:41:15.881Z,-1.22
2023-12-10T03:42:18.464Z,-1.26
2023-12-10T03:43:21.203Z,-1.24
2023-12-10T03:44:23.576Z,-1.28
2023-12-10T03:45:26.344Z,-1.29
2023-12-10T03:46:29.872Z,-1.29
2023-12-10T03:47:32.179Z,-1.29
2023-12-10T03:48:34.707Z,-1.25
2023-12-10T03:49:37.331Z,-1.24
2023-12-10T03:50:39.793Z,-1.22
2023-12-10T03:51:42.653Z,-1.26
2023-12-10T03:52:45.181Z,-1.25
2023-12-10T03:53:47.648Z,-1.24
2023-12-10T03:54:50.092Z,-1.25
2023-12-10T03:55:53.450Z,-1.25
2023-12-10T03:56:56.321Z,-1.28
2023-12-10T03:57:58.757Z,-1.26
2023-12-10T03:59:01.204Z,-1.27
2023-12-10T04:00:04.573Z,-1.27
2023-12-10T04:01:09.437Z,-1.29
2023-12-10T04:02:12.446Z,-1.28
2023-12-10T04:03:14.924Z,-1.29
2023-12-10T04:04:17.332Z,-1.25
2023-12-10T04:05:20.075Z,-1.25
2023-12-10T04:06:22.489Z,-1.28
2023-12-10T04:07:26.009Z,-1.28
2023-12-10T04:08:28.896Z,-1.29
2023-12-10T04:09:31.731Z,-1.32
2023-12-10T04:10:34.853Z,-1.31
2023-12-10T04:11:38.759Z,-1.27
2023-12-10T04:12:41.279Z,-1.29
2023-12-10T04:13:43.621Z,-1.28
2023-12-10T04:14:47.411Z,-1.29
2023-12-10T04:15:49.778Z,-1.29
2023-12-10T04:16:52.427Z,-1.28
2023-12-10T04:17:54.881Z,-1.30
2023-12-10T04:18:58.030Z,-1.28
2023-12-10T04:20:00.539Z,-1.27
2023-12-10T04:21:03.882Z,-1.26
2023-12-10T04:22:06.226Z,-1.27
2023-12-10T04:23:09.148Z,-1.27
2023-12-10T04:24:11.548Z,-1.25
2023-12-10T04:25:14.450Z,-1.25
2023-12-10T04:26:17.818Z,-1.24
2023-12-10T04:27:20.356Z,-1.27
2023-12-10T04:28:23.001Z,-1.27
2023-12-10T04:29:26.394Z,-1.26
2023-12-10T04:30:29.266Z,-1.29
2023-12-10T04:31:32.408Z,-1.31
2023-12-10T04:32:34.813Z,-1.29
2023-12-10T04:33:37.369Z,-1.31
2023-12-10T04:34:39.788Z,-1.30
2023-12-10T04:35:42.725Z,-1.30
2023-12-10T04:36:45.589Z,-1.29
2023-12-10T04:37:47.876Z,-1.32
2023-12-10T04:38:50.655Z,-1.32
2023-12-10T04:39:53.464Z,-1.31
2023-12-10T04:40:55.969Z,-1.32
2023-12-10T04:41:58.396Z,-1.31
2023-12-10T04:43:00.908Z,-1.30
2023-12-10T04:44:03.220Z,-1.32
2023-12-10T04:45:06.579Z,-1.29
2023-12-10T04:46:09.680Z,-1.29
2023-12-10T04:47:12.076Z,-1.26
2023-12-10T04:48:14.909Z,-1.26
2023-12-10T04:49:17.516Z,-1.26
2023-12-10T04:50:21.113Z,-1.24
2023-12-10T04:51:23.310Z,-1.25
2023-12-10T04:52:25.640Z,-1.25
2023-12-10T04:53:28.036Z,-1.28
2023-12-10T04:54:30.456Z,-1.26
2023-12-10T04:55:33.229Z,-1.28
2023-12-10T04:56:35.516Z,-1.25
2023-12-10T04:57:38.338Z,-1.25
2023-12-10T04:58:41.033Z,-1.25
2023-12-10T04:59:43.336Z,-1.26
2023-12-10T05:00:45.825Z,-1.26
2023-12-10T05:01:48.605Z,-1.25
2023-12-10T05:02:50.996Z,-1.29
2023-12-10T05:03:53.444Z,-1.29
2023-12-10T05:04:55.832Z,-1.32
2023-12-10T05:05:58.653Z,-1.33
2023-12-10T05:07:01.541Z,-1.36
2023-12-10T05:08:04.694Z,-1.35
2023-12-10T05:09:07.946Z,-1.33
2023-12-10T05:10:10.871Z,-1.36
2023-12-10T05:11:13.608Z,-1.38
2023-12-10T05:12:16.609Z,-1.36
2023-12-10T05:13:19.443Z,-1.34
2023-12-10T05:14:21.750Z,-1.36
2023-12-10T05:15:24.144Z,-1.34
2023-12-10T05:16:26.577Z,-1.35
2023-12-10T05:17:28.883Z,-1.37
2023-12-10T05:18:31.555Z,-1.33
2023-12-10T05:19:33.915Z,-1.32
2023-12-10T05:20:36.400Z,-1.32
2023-12-10T05:21:38.877Z,-1.31
2023-12-10T05:22:41.297Z,-1.33
2023-12-10T05:23:43.608Z,-1.32
2023-12-10T05:24:46.040Z,-1.30
2023-12-10T05:25:48.989Z,-1.30
2023-12-10T05:26:52.065Z,-1.29
2023-12-10T05:27:55.737Z,-1.27
2023-12-10T05:28:59.394Z,-1.28
2023-12-10T05:30:01.681Z,-1.28
2023-12-10T05:31:04.796Z,-1.24
2023-12-10T05:32:07.724Z,-1.28
2023-12-10T05:33:10.541Z,-1.28
2023-12-10T05:34:12.826Z,-1.27
2023-12-10T05:35:15.726Z,-1.29
2023-12-10T05:36:19.141Z,-1.27
2023-12-10T05:37:22.123Z,-1.27
2023-12-10T05:38:24.899Z,-1.26
2023-12-10T05:39:27.170Z,-1.24
2023-12-10T05:40:29.604Z,-1.25
2023-12-10T05:41:32.012Z,-1.23
2023-12-10T05:42:34.676Z,-1.22
2023-12-10T05:43:37.824Z,-1.25
2023-12-10T05:44:40.230Z,-1.29
2023-12-10T05:45:42.560Z,-1.30
2023-12-10T05:46:45.977Z,-1.27
2023-12-10T05:47:48.814Z,-1.28
2023-12-10T05:48:51.741Z,-1.29
2023-12-10T05:49:54.389Z,-1.29
2023-12-10T05:50:57.269Z,-1.32
2023-12-10T05:51:59.618Z,-1.32
2023-12-10T05:53:01.907Z,-1.35
2023-12-10T05:54:04.336Z,-1.36
2023-12-10T05:55:07.884Z,-1.39
2023-12-10T05:56:11.065Z,-1.39
2023-12-10T05:57:13.767Z,-1.42
2023-12-10T05:58:16.085Z,-1.43
2023-12-10T05:59:18.541Z,-1.42
2023-12-10T06:00:21.320Z,-1.44
2023-12-10T06:01:23.867Z,-1.45
2023-12-10T06:02:26.719Z,-1.40
2023-12-10T06:03:29.321Z,-1.41
2023-12-10T06:04:32.351Z,-1.38
2023-12-10T06:05:35.040Z,-1.43
2023-12-10T06:06:37.568Z,-1.42
2023-12-10T06:07:39.833Z,-1.42
2023-12-10T06:08:42.091Z,-1.40
2023-12-10T06:09:44.882Z,-1.45
2023-12-10T06:10:47.409Z,-1.45
2023-12-10T06:11:49.883Z,-1.44
2023-12-10T06:12:52.530Z,-1.45
2023-12-10T06:13:55.429Z,-1.40
2023-12-10T06:14:57.854Z,-1.44
2023-12-10T06:16:00.595Z,-1.44
2023-12-10T06:17:02.973Z,-1.43
2023-12-10T06:18:05.321Z,-1.42
2023-12-10T06:19:07.930Z,-1.45
2023-12-10T06:20:12.411Z,-1.44
2023-12-10T06:21:15.399Z,-1.45
2023-12-10T06:22:17.983Z,-1.46
2023-12-10T06:23:20.254Z,-1.44
2023-12-10T06:24:22.572Z,-1.46
2023-12-10T06:25:25.045Z,-1.46
2023-12-10T06:26:27.440Z,-1.49
2023-12-10T06:27:29.919Z,-1.49
2023-12-10T06:28:32.287Z,-1.52
2023-12-10T06:29:34.530Z,-1.51
2023-12-10T06:30:37.945Z,-1.53
2023-12-10T06:31:40.902Z,-1.51
2023-12-10T06:32:43.421Z,-1.47
2023-12-10T06:33:46.334Z,-1.49
2023-12-10T06:34:48.917Z,-1.48
2023-12-10T06:35:51.630Z,-1.45
2023-12-10T06:36:54.113Z,-1.49
2023-12-10T06:37:56.840Z,-1.47
2023-12-10T06:38:59.285Z,-1.50
2023-12-10T06:40:01.860Z,-1.49
2023-12-10T06:41:04.553Z,-1.48
2023-12-10T06:42:07.310Z,-1.49
2023-12-10T06:43:09.926Z,-1.45
2023-12-10T06:44:12.356Z,-1.44
2023-12-10T06:45:14.691Z,-1.43
2023-12-10T06:46:17.299Z,-1.44
2023-12-10T06:47:20.906Z,-1.39
2023-12-10T06:48:24.569Z,-1.38
2023-12-10T06:49:27.685Z,-1.39
2023-12-10T06:50:30.605Z,-1.38
2023-12-10T06:51:33.222Z,-1.38
2023-12-10T06:52:35.517Z,-1.39
2023-12-10T06:53:37.773Z,-1.38
2023-12-10T06:54:40.671Z,-1.34
2023-12-10T06:55:43.536Z,-1.36
2023-12-10T06:56:46.077Z,-1.35
2023-12-10T06:57:48.325Z,-1.36
2023-12-10T06:58:50.814Z,-1.36
2023-12-10T06:59:53.520Z,-1.35
2023-12-10T07:00:56.181Z,-1.35
2023-12-10T07:01:59.441Z,-1.35
2023-12-10T07:03:01.852Z,-1.37
2023-12-10T07:04:08.167Z,-1.38
2023-12-10T07:05:10.660Z,-1.33
2023-12-10T07:06:13.578Z,-1.35
2023-12-10T07:07:16.236Z,-1.36
2023-12-10T07:08:18.630Z,-1.35
2023-12-10T07:09:22.795Z,-1.37
2023-12-10T07:10:25.722Z,-1.37
2023-12-10T07:11:28.033Z,-1.42
2023-12-10T07:12:31.092Z,-1.42
2023-12-10T07:13:34.726Z,-1.43
2023-12-10T07:14:37.172Z,-1.42
2023-12-10T07:15:39.667Z,-1.40
2023-12-10T07:16:42.470Z,-1.37
2023-12-10T07:17:45.432Z,-1.36
2023-12-10T07:18:48.018Z,-1.34
2023-12-10T07:19:51.593Z,-1.33
2023-12-10T07:20:54.913Z,-1.37
2023-12-10T07:21:57.436Z,-1.37
2023-12-10T07:23:00.067Z,-1.34
2023-12-10T07:24:02.348Z,-1.32
2023-12-10T07:25:05.815Z,-1.31
2023-12-10T07:26:08.782Z,-1.29
2023-12-10T07:27:12.176Z,-1.26
2023-12-10T07:28:14.646Z,-1.23
2023-12-10T07:29:17.049Z,-1.28
2023-12-10T07:30:20.549Z,-1.26
2023-12-10T07:31:23.307Z,-1.26
2023-12-10T07:32:26.297Z,-1.25
2023-12-10T07:33:29.326Z,-1.23
2023-12-10T07:34:32.343Z,-1.22
2023-12-10T07:35:34.799Z,-1.22
2023-12-10T07:36:40.646Z,-1.22
2023-12-10T07:37:42.328Z,-1.23
2023-12-10T07:38:45.038Z,-1.24
2023-12-10T07:39:47.594Z,-1.28
2023-12-10T07:40:50.587Z,-1.24
2023-12-10T07:41:53.810Z,-1.30
2023-12-10T07:42:56.327Z,-1.30
2023-12-10T07:43:58.865Z,-1.32
2023-12-10T07:45:01.511Z,-1.30
2023-12-10T07:46:04.157Z,-1.27
2023-12-10T07:47:08.153Z,-1.26
2023-12-10T07:48:11.205Z,-1.26
2023-12-10T07:49:13.638Z,-1.27
2023-12-10T07:50:17.084Z,-1.27
2023-12-10T07:51:20.564Z,-1.30
2023-12-10T07:52:24.107Z,-1.30
2023-12-10T07:53:26.938Z,-1.30
2023-12-10T07:54:29.316Z,-1.32
2023-12-10T07:55:32.153Z,-1.34
2023-12-10T07:56:34.488Z,-1.34
2023-12-10T07:57:37.061Z,-1.34
2023-12-10T07:58:39.930Z,-1.36
2023-12-10T07:59:42.770Z,-1.37
2023-12-10T08:00:45.620Z,-1.36
2023-12-10T08:01:48.223Z,-1.39
2023-12-10T08:02:50.612Z,-1.35
2023-12-10T08:03:53.913Z,-1.31
2023-12-10T08:04:56.400Z,-1.34
2023-12-10T08:05:58.792Z,-1.34
2023-12-10T08:07:01.315Z,-1.34
2023-12-10T08:08:04.062Z,-1.34
2023-12-10T08:09:06.694Z,-1.32
2023-12-10T08:10:09.315Z,-1.31
2023-12-10T08:11:11.841Z,-1.31
2023-12-10T08:12:14.613Z,-1.30
2023-12-10T08:13:17.317Z,-1.30
2023-12-10T08:14:20.186Z,-1.30
2023-12-10T08:15:23.088Z,-1.31
2023-12-10T08:16:26.060Z,-1.31
2023-12-10T08:17:28.443Z,-1.27
2023-12-10T08:18:30.873Z,-1.25
2023-12-10T08:19:33.230Z,-1.23
2023-12-10T08:20:35.809Z,-1.22
2023-12-10T08:21:38.140Z,-1.22
2023-12-10T08:22:40.403Z,-1.18
2023-12-10T08:23:43.203Z,-1.14
2023-12-10T08:24:45.879Z,-1.11
2023-12-10T08:25:48.648Z,-1.07
2023-12-10T08:26:51.179Z,-1.09
2023-12-10T08:27:53.560Z,-1.06
2023-12-10T08:28:56.332Z,-1.07
2023-12-10T08:29:59.997Z,-1.04
2023-12-10T08:31:02.508Z,-1.03
2023-12-10T08:32:05.990Z,-1.03
2023-12-10T08:33:08.690Z,-1.03
2023-12-10T08:34:11.884Z,-0.99
2023-12-10T08:35:14.284Z,-0.99
2023-12-10T08:36:18.258Z,-0.95
2023-12-10T08:37:20.726Z,-0.99
2023-12-10T08:38:23.582Z,-0.95
2023-12-10T08:39:26.095Z,-0.94
2023-12-10T08:40:28.859Z,-0.93
2023-12-10T08:41:34.648Z,-0.92
2023-12-10T08:42:36.903Z,-0.88
2023-12-10T08:43:39.752Z,-0.89
2023-12-10T08:44:42.745Z,-0.87
2023-12-10T08:45:45.837Z,-0.83
2023-12-10T08:46:48.505Z,-0.83
2023-12-10T08:47:51.414Z,-0.81
2023-12-10T08:48:54.329Z,-0.78
2023-12-10T08:49:57.080Z,-0.76
2023-12-10T08:50:59.615Z,-0.79
2023-12-10T08:52:03.153Z,-0.81
2023-12-10T08:53:06.410Z,-0.80
2023-12-10T08:54:09.331Z,-0.77
2023-12-10T08:55:11.885Z,-0.77
2023-12-10T08:56:15.770Z,-0.79
2023-12-10T08:57:18.577Z,-0.81
2023-12-10T08:58:21.611Z,-0.74
2023-12-10T08:59:23.913Z,-0.76
2023-12-10T09:00:27.172Z,-0.76
2023-12-10T09:01:29.553Z,-0.77
2023-12-10T09:02:33.129Z,-0.78
2023-12-10T09:03:36.222Z,-0.78
2023-12-10T09:04:39.184Z,-0.76
2023-12-10T09:05:42.851Z,-0.76
2023-12-10T09:06:46.281Z,-0.72
2023-12-10T09:07:49.465Z,-0.71
2023-12-10T09:08:52.449Z,-0.68
2023-12-10T09:10:02.238Z,-0.68
2023-12-10T09:11:01.604Z,-0.66
2023-12-10T09:12:04.817Z,-0.67
2023-12-10T09:13:07.323Z,-0.69
2023-12-10T09:14:09.820Z,-0.66
2023-12-10T09:15:13.270Z,-0.66
2023-12-10T09:16:19.422Z,-0.65
2023-12-10T09:17:22.707Z,-0.65
2023-12-10T09:18:26.111Z,-0.64
2023-12-10T09:19:28.568Z,-0.62
2023-12-10T09:20:32.085Z,-0.60
2023-12-10T09:21:34.435Z,-0.55
2023-12-10T09:22:36.731Z,-0.54
2023-12-10T09:23:38.963Z,-0.50
2023-12-10T09:24:41.425Z,-0.52
2023-12-10T09:25:43.700Z,-0.48
2023-12-10T09:26:46.841Z,-0.44
2023-12-10T09:27:49.142Z,-0.42
2023-12-10T09:28:51.579Z,-0.38
2023-12-10T09:29:54.907Z,-0.38
2023-12-10T09:30:58.124Z,-0.40
2023-12-10T09:32:00.918Z,-0.39
2023-12-10T09:33:03.801Z,-0.37
2023-12-10T09:34:06.435Z,-0.34
2023-12-10T09:35:09.740Z,-0.29
2023-12-10T09:36:13.450Z,-0.32
2023-12-10T09:37:16.750Z,-0.29
2023-12-10T09:38:19.110Z,-0.28
2023-12-10T09:39:23.300Z,-0.26
2023-12-10T09:40:26.527Z,-0.21
2023-12-10T09:42:26.613Z,-0.09
2023-12-10T09:43:29.636Z,-0.24
2023-12-10T09:44:31.988Z,-0.27
2023-12-10T09:45:34.480Z,-0.22
2023-12-10T09:46:37.523Z,-0.26
2023-12-10T09:47:41.138Z,-0.23
2023-12-10T09:48:46.828Z,-0.22
2023-12-10T09:49:52.215Z,-0.18
2023-12-10T09:50:55.121Z,-0.18
2023-12-10T09:51:57.525Z,-0.23
2023-12-10T09:52:59.867Z,-0.23
2023-12-10T09:54:02.124Z,-0.24
2023-12-10T09:55:07.141Z,-0.25
2023-12-10T09:56:10.865Z,-0.21
2023-12-10T09:57:13.426Z,-0.21
2023-12-10T09:58:15.793Z,-0.22
2023-12-10T09:59:18.113Z,-0.17
2023-12-10T10:00:22.655Z,-0.20
2023-12-10T10:01:25.614Z,-0.20
2023-12-10T10:02:31.803Z,-0.20
2023-12-10T10:03:37.604Z,-0.19
2023-12-10T10:04:40.905Z,-0.18
2023-12-10T10:05:45.368Z,-0.20
2023-12-10T10:06:49.202Z,-0.18
2023-12-10T10:07:51.500Z,-0.17
2023-12-10T10:08:53.835Z,-0.18
2023-12-10T10:10:48.696Z,-0.05
2023-12-10T10:11:52.295Z,-0.15
2023-12-10T10:12:54.910Z,-0.13
2023-12-10T10:13:58.247Z,-0.14
2023-12-10T10:15:01.296Z,-0.12
2023-12-10T10:16:12.597Z,-0.07
2023-12-10T10:17:15.415Z,-0.04
2023-12-10T10:18:17.837Z,-0.04
2023-12-10T10:19:21.792Z,-0.05
2023-12-10T10:20:26.201Z,-0.06
2023-12-10T10:21:30.802Z,-0.12
2023-12-10T10:22:33.619Z,-0.17
2023-12-10T10:23:35.932Z,-0.18
2023-12-10T10:24:38.292Z,-0.21
2023-12-10T10:25:41.837Z,-0.24
2023-12-10T10:26:45.068Z,-0.24
2023-12-10T10:28:59.136Z,-0.08
2023-12-10T10:30:02.756Z,-0.19
2023-12-10T10:31:05.791Z,-0.15
2023-12-10T10:32:11.227Z,-0.10
2023-12-10T10:33:16.773Z,-0.10
2023-12-10T10:34:22.005Z,-0.09
2023-12-10T10:35:24.501Z,-0.09
2023-12-10T10:36:27.111Z,-0.06
2023-12-10T10:37:30.193Z,-0.07
2023-12-10T10:38:33.643Z,-0.06
2023-12-10T10:39:37.659Z,-0.11
2023-12-10T10:40:40.572Z,-0.09
2023-12-10T10:41:43.484Z,-0.09
2023-12-10T10:42:47.040Z,-0.06
2023-12-10T10:43:49.944Z,-0.06
2023-12-10T10:44:52.395Z,-0.04
2023-12-10T10:45:58.059Z,-0.01
2023-12-10T10:47:01.979Z,0.00
2023-12-10T10:48:06.558Z,0.02
2023-12-10T10:49:09.213Z,0.01
2023-12-10T10:50:22.216Z,0.06
2023-12-10T10:52:33.550Z,0.18
2023-12-10T10:53:38.088Z,0.04
2023-12-10T10:54:41.248Z,0.04
2023-12-10T10:55:44.245Z,0.05
2023-12-10T10:56:47.019Z,0.06
2023-12-10T10:57:49.710Z,0.04
2023-12-10T10:58:51.983Z,0.03
2023-12-10T10:59:54.861Z,0.03
2023-12-10T11:01:00.004Z,0.04
2023-12-10T11:02:07.896Z,0.05
2023-12-10T11:03:10.465Z,0.05
2023-12-10T11:04:13.424Z,0.07
2023-12-10T11:06:28.362Z,0.22
2023-12-10T11:07:31.506Z,0.03
2023-12-10T11:08:34.081Z,0.04
2023-12-10T11:09:57.963Z,0.07
2023-12-10T11:11:01.325Z,0.06
2023-12-10T11:12:04.934Z,0.10
2023-12-10T11:13:07.254Z,0.07
2023-12-10T11:15:30.814Z,0.22
2023-12-10T11:16:37.437Z,0.00
2023-12-10T11:17:58.777Z,0.00
2023-12-10T11:19:01.532Z,0.05
2023-12-10T11:20:04.536Z,0.04
2023-12-10T11:21:10.160Z,0.04
2023-12-10T11:22:12.900Z,0.00
2023-12-10T11:24:28.695Z,0.14
2023-12-10T11:25:32.768Z,-0.04
2023-12-10T11:26:35.599Z,-0.02
2023-12-10T11:27:39.159Z,-0.02
2023-12-10T11:28:42.648Z,-0.01
2023-12-10T11:29:45.638Z,0.03
2023-12-10T11:30:48.948Z,0.03
2023-12-10T11:31:51.746Z,0.05
2023-12-10T11:32:54.821Z,0.06
2023-12-10T11:33:57.840Z,0.02
2023-12-10T11:35:00.506Z,0.03
2023-12-10T11:36:32.801Z,-0.01
2023-12-10T11:37:07.797Z,0.02
2023-12-10T11:38:10.127Z,-0.04
2023-12-10T11:39:14.314Z,-0.02
2023-12-10T11:40:19.034Z,-0.08
2023-12-10T11:42:33.822Z,-0.01
2023-12-10T11:43:36.111Z,-0.20
2023-12-10T11:44:38.845Z,-0.22
2023-12-10T11:45:43.193Z,-0.24
2023-12-10T11:46:50.803Z,-0.21
2023-12-10T11:47:51.555Z,-0.19
2023-12-10T11:48:54.057Z,-0.25
2023-12-10T11:49:57.336Z,-0.26
2023-12-10T11:51:01.559Z,-0.26
2023-12-10T11:52:06.222Z,-0.27
2023-12-10T11:53:08.592Z,-0.24
2023-12-10T11:54:11.293Z,-0.26
2023-12-10T11:55:13.922Z,-0.26
2023-12-10T11:56:17.138Z,-0.26
2023-12-10T11:57:19.921Z,-0.24
2023-12-10T11:59:37.344Z,-0.04
2023-12-10T12:01:01.873Z,-0.15
2023-12-10T12:02:06.544Z,-0.12
2023-12-10T12:03:09.329Z,-0.08
2023-12-10T12:04:11.606Z,-0.08
2023-12-10T12:05:17.919Z,-0.04
2023-12-10T12:06:22.992Z,-0.04
2023-12-10T12:07:27.299Z,-0.03
2023-12-10T12:08:30.402Z,0.00
2023-12-10T12:09:32.709Z,0.05
2023-12-10T12:10:37.768Z,0.04
2023-12-10T12:11:41.374Z,0.05
2023-12-10T12:12:47.841Z,0.03
2023-12-10T12:13:50.876Z,0.05
2023-12-10T12:14:53.245Z,0.07
2023-12-10T12:15:56.273Z,0.10
2023-12-10T12:17:02.057Z,0.10
2023-12-10T12:18:04.499Z,0.11
2023-12-10T12:19:07.902Z,0.14
2023-12-10T12:20:19.770Z,0.11
2023-12-10T12:21:22.203Z,0.12
2023-12-10T12:22:24.729Z,0.15
2023-12-10T12:23:27.240Z,0.16
2023-12-10T12:24:30.628Z,0.14
2023-12-10T12:25:33.793Z,0.15
2023-12-10T12:26:38.410Z,0.16
2023-12-10T12:27:40.933Z,0.07
2023-12-10T12:28:46.283Z,0.05
2023-12-10T12:29:47.501Z,0.04
2023-12-10T12:30:49.882Z,0.00
2023-12-10T12:32:05.557Z,-0.02
2023-12-10T12:32:56.581Z,-0.02
2023-12-10T12:34:01.117Z,-0.05
2023-12-10T12:35:04.985Z,-0.13
2023-12-10T12:36:08.918Z,-0.17
2023-12-10T12:37:11.390Z,-0.27
2023-12-10T12:38:14.307Z,-0.29
2023-12-10T12:39:16.662Z,-0.33
2023-12-10T12:40:19.618Z,-0.36
2023-12-10T12:41:22.001Z,-0.42
2023-12-10T12:42:24.627Z,-0.40
2023-12-10T12:43:27.061Z,-0.40
2023-12-10T12:44:30.240Z,-0.40
2023-12-10T12:45:35.558Z,-0.39
2023-12-10T12:46:38.588Z,-0.38
2023-12-10T12:47:41.186Z,-0.39
2023-12-10T12:48:44.490Z,-0.42
2023-12-10T12:49:47.782Z,-0.45
2023-12-10T12:50:51.339Z,-0.49
2023-12-10T12:51:54.304Z,-0.50
2023-12-10T12:52:57.231Z,-0.49
2023-12-10T12:54:11.940Z,-0.47
2023-12-10T12:55:04.713Z,-0.46
2023-12-10T12:56:09.116Z,-0.49
2023-12-10T12:57:11.532Z,-0.50
2023-12-10T12:58:13.999Z,-0.52
2023-12-10T12:59:16.262Z,-0.53
2023-12-10T13:00:19.510Z,-0.50
2023-12-10T13:01:22.096Z,-0.46
2023-12-10T13:02:26.414Z,-0.46
2023-12-10T13:03:29.918Z,-0.45
2023-12-10T13:04:32.503Z,-0.47
2023-12-10T13:05:35.080Z,-0.49
2023-12-10T13:06:38.669Z,-0.48
2023-12-10T13:07:41.614Z,-0.48
2023-12-10T13:08:44.643Z,-0.50
2023-12-10T13:09:47.188Z,-0.48
2023-12-10T13:10:50.377Z,-0.47
2023-12-10T13:11:52.693Z,-0.46
2023-12-10T13:12:55.126Z,-0.46
2023-12-10T13:13:57.532Z,-0.45
2023-12-10T13:15:00.312Z,-0.43
2023-12-10T13:16:03.083Z,-0.42
2023-12-10T13:17:05.475Z,-0.44
2023-12-10T13:18:07.897Z,-0.48
2023-12-10T13:19:10.533Z,-0.47
2023-12-10T13:20:15.368Z,-0.46
2023-12-10T13:21:19.721Z,-0.42
2023-12-10T13:22:22.556Z,-0.41
2023-12-10T13:23:26.332Z,-0.39
2023-12-10T13:24:29.010Z,-0.37
2023-12-10T13:25:31.281Z,-0.35
2023-12-10T13:26:34.904Z,-0.35
2023-12-10T13:27:38.178Z,-0.32
2023-12-10T13:28:43.960Z,-0.31
2023-12-10T13:29:49.421Z,-0.31
2023-12-10T13:30:54.019Z,-0.27
2023-12-10T13:32:01.150Z,-0.26
2023-12-10T13:33:15.460Z,-0.25
2023-12-10T13:34:19.538Z,-0.23
2023-12-10T13:35:25.852Z,-0.22
2023-12-10T13:36:29.398Z,-0.22
2023-12-10T13:37:35.791Z,-0.22
2023-12-10T13:38:38.966Z,-0.19
2023-12-10T13:39:47.553Z,-0.19
2023-12-10T13:42:14.752Z,-0.15
2023-12-10T13:43:24.065Z,-0.10
2023-12-10T13:44:27.936Z,-0.12
2023-12-10T13:45:33.916Z,-0.11
2023-12-10T13:46:39.332Z,-0.10
2023-12-10T13:47:43.141Z,-0.11
2023-12-10T13:48:46.537Z,-0.13
2023-12-10T13:49:51.323Z,-0.10
2023-12-10T13:51:03.139Z,-0.11